Time;durP1;ratioP1;P1;durP2;ratioP2;P2;SDS_P1;SDS_P2;PMS_P1;PMS_P2;Temp;Humidity;BMP_temperature;BMP_pressure;BME280_temperature;BME280_humidity;BME280_pressure;Samples;Min_cycle;Max_cycle;Signal;HPM_P1;HPM_P2
2021/11/27 00:02:19;;;;;;;60.05;32.47;;;;;;;;;;5033922;28;20112;-62
2021/11/27 00:04:45;;;;;;;50.83;28.83;;;;;;;;;;5016482;28;20090;-61
2021/11/27 00:07:11;;;;;;;46.50;29.00;;;;;;;;;;5033999;28;20075;-62
2021/11/27 00:09:38;;;;;;;45.65;26.45;;;;;;;;;;5033888;28;20028;-61
2021/11/27 00:12:04;;;;;;;44.05;25.73;;;;;;;;;;5023867;28;20476;-61
2021/11/27 00:14:33;;;;;;;44.80;26.50;;;;;;;;;;5036080;28;20149;-61
2021/11/27 00:16:59;;;;;;;48.88;28.00;;;;;;;;;;5053998;28;20474;-62
2021/11/27 00:19:26;;;;;;;41.47;26.77;;;;;;;;;;5053720;28;20048;-62
2021/11/27 00:21:52;;;;;;;48.70;29.00;;;;;;;;;;5053873;28;20037;-63
2021/11/27 00:24:18;;;;;;;43.28;26.92;;;;;;;;;;5054128;28;20116;-64
2021/11/27 00:26:44;;;;;;;48.22;27.92;;;;;;;;;;5036017;28;20025;-61
2021/11/27 00:29:11;;;;;;;51.58;28.58;;;;;;;;;;5054053;28;20112;-64
2021/11/27 00:31:41;;;;;;;50.90;30.35;;;;;;;;;;5053675;28;20036;-62
2021/11/27 00:34:07;;;;;;;52.70;29.40;;;;;;;;;;5035898;28;20036;-62
2021/11/27 00:36:33;;;;;;;54.63;31.95;;;;;;;;;;5053386;28;20366;-62
2021/11/27 00:39:04;;;;;;;58.75;34.10;;;;;;;;;;5053623;28;20029;-63
2021/11/27 00:41:30;;;;;;;69.65;43.50;;;;;;;;;;5052238;28;20068;-64
2021/11/27 00:43:56;;;;;;;94.43;54.33;;;;;;;;;;5053146;28;20035;-61
2021/11/27 00:46:23;;;;;;;88.60;55.53;;;;;;;;;;5053529;28;20029;-63
2021/11/27 00:48:49;;;;;;;98.72;54.60;;;;;;;;;;5053438;28;20481;-64
2021/11/27 00:51:18;;;;;;;84.68;51.25;;;;;;;;;;5053382;28;20424;-64
2021/11/27 00:53:45;;;;;;;85.10;49.50;;;;;;;;;;5053382;28;20029;-65
2021/11/27 00:56:14;;;;;;;85.60;47.92;;;;;;;;;;5053330;28;20036;-61
2021/11/27 00:58:40;;;;;;;88.82;49.60;;;;;;;;;;5053351;28;20099;-62
2021/11/27 01:01:15;;;;;;;87.97;48.53;;;;;;;;;;5053257;28;20061;-63
2021/11/27 01:03:42;;;;;;;86.70;45.60;;;;;;;;;;5053216;28;20490;-61
2021/11/27 01:06:09;;;;;;;81.38;45.75;;;;;;;;;;5053187;28;20032;-61
2021/11/27 01:08:36;;;;;;;90.72;50.15;;;;;;;;;;5053186;28;20116;-61
2021/11/27 01:11:08;;;;;;;91.18;51.00;;;;;;;;;;5052697;28;20533;-61
2021/11/27 01:13:35;;;;;;;87.85;47.95;;;;;;;;;;5052446;28;20056;-61
2021/11/27 01:16:02;;;;;;;88.40;47.33;;;;;;;;;;5051694;28;20040;-62
2021/11/27 01:18:29;;;;;;;87.07;47.40;;;;;;;;;;5052164;28;20025;-63
2021/11/27 01:20:58;;;;;;;93.38;48.92;;;;;;;;;;5052339;28;20037;-62
2021/11/27 01:23:25;;;;;;;96.82;51.03;;;;;;;;;;5051144;28;20025;-62
2021/11/27 01:25:52;;;;;;;94.28;48.42;;;;;;;;;;5052736;28;20032;-61
2021/11/27 01:28:20;;;;;;;95.68;50.90;;;;;;;;;;5052548;28;20064;-65
2021/11/27 01:30:48;;;;;;;94.57;50.40;;;;;;;;;;5051525;28;20473;-62
2021/11/27 01:33:14;;;;;;;91.35;47.75;;;;;;;;;;5052589;28;20391;-65
2021/11/27 01:35:41;;;;;;;93.53;48.17;;;;;;;;;;5052817;28;20144;-62
2021/11/27 01:38:07;;;;;;;95.22;47.83;;;;;;;;;;5052888;28;20021;-62
2021/11/27 01:40:34;;;;;;;94.93;49.67;;;;;;;;;;5052539;28;20057;-62
2021/11/27 01:43:00;;;;;;;93.93;49.92;;;;;;;;;;5053049;28;20025;-61
2021/11/27 01:45:27;;;;;;;102.65;51.80;;;;;;;;;;5052772;28;20024;-61
2021/11/27 01:47:56;;;;;;;98.10;47.65;;;;;;;;;;5051487;28;20179;-63
2021/11/27 01:50:25;;;;;;;106.15;49.60;;;;;;;;;;5052627;28;20036;-62
2021/11/27 01:52:51;;;;;;;101.97;49.22;;;;;;;;;;5052655;28;20065;-62
2021/11/27 01:55:17;;;;;;;99.93;46.22;;;;;;;;;;5052679;28;20025;-62
2021/11/27 01:57:44;;;;;;;100.40;45.58;;;;;;;;;;5052658;28;20117;-61
2021/11/27 02:00:12;;;;;;;95.97;42.35;;;;;;;;;;5052615;28;20112;-63
2021/11/27 02:02:39;;;;;;;92.18;41.33;;;;;;;;;;5051336;28;20471;-63
2021/11/27 02:05:05;;;;;;;81.50;38.83;;;;;;;;;;5051283;28;20112;-62
2021/11/27 02:07:32;;;;;;;79.05;34.92;;;;;;;;;;5052607;28;20051;-62
2021/11/27 02:09:58;;;;;;;69.20;31.83;;;;;;;;;;5052490;28;20105;-61
2021/11/27 02:12:24;;;;;;;56.03;29.23;;;;;;;;;;5052011;28;20555;-61
2021/11/27 02:14:51;;;;;;;60.08;30.42;;;;;;;;;;5051031;28;20033;-62
2021/11/27 02:17:17;;;;;;;61.00;31.05;;;;;;;;;;5051184;28;20550;-64
2021/11/27 02:19:45;;;;;;;57.72;28.92;;;;;;;;;;5051221;28;20056;-63
2021/11/27 02:22:11;;;;;;;54.50;26.83;;;;;;;;;;5051176;28;20414;-64
2021/11/27 02:24:39;;;;;;;44.72;24.33;;;;;;;;;;5051129;28;20082;-62
2021/11/27 02:27:05;;;;;;;36.63;20.58;;;;;;;;;;5052358;28;20025;-64
2021/11/27 02:29:33;;;;;;;26.67;17.13;;;;;;;;;;5052181;28;20032;-63
2021/11/27 02:32:03;;;;;;;28.83;18.30;;;;;;;;;;5052250;28;20065;-64
2021/11/27 02:34:29;;;;;;;32.55;20.15;;;;;;;;;;5052527;28;20040;-63
2021/11/27 02:36:58;;;;;;;30.55;18.52;;;;;;;;;;5055981;28;20044;-63
2021/11/27 02:39:24;;;;;;;27.38;18.45;;;;;;;;;;5054702;28;20025;-62
2021/11/27 02:41:53;;;;;;;29.00;17.42;;;;;;;;;;5054575;28;20068;-63
2021/11/27 02:44:27;;;;;;;29.17;16.73;;;;;;;;;;5055877;28;20029;-62
2021/11/27 02:46:54;;;;;;;33.80;18.80;;;;;;;;;;5055759;28;20068;-63
2021/11/27 02:49:20;;;;;;;33.10;19.85;;;;;;;;;;5054476;28;20025;-62
2021/11/27 02:51:47;;;;;;;29.67;18.90;;;;;;;;;;5055634;28;20072;-61
2021/11/27 02:54:13;;;;;;;24.70;15.73;;;;;;;;;;5054387;28;20040;-63
2021/11/27 02:56:40;;;;;;;22.00;14.23;;;;;;;;;;5054318;28;20033;-62
2021/11/27 02:59:10;;;;;;;22.48;15.90;;;;;;;;;;5054320;28;20461;-62
2021/11/27 03:01:36;;;;;;;24.00;14.90;;;;;;;;;;5055490;28;20033;-63
2021/11/27 03:04:02;;;;;;;22.80;14.38;;;;;;;;;;5055460;28;20073;-62
2021/11/27 03:06:29;;;;;;;23.25;15.15;;;;;;;;;;5055398;28;20025;-63
2021/11/27 03:08:56;;;;;;;22.45;14.20;;;;;;;;;;5055181;28;20355;-63
2021/11/27 03:11:22;;;;;;;23.50;14.43;;;;;;;;;;5053725;28;20516;-62
2021/11/27 03:13:48;;;;;;;21.48;12.20;;;;;;;;;;5054031;28;20085;-62
2021/11/27 03:16:15;;;;;;;21.25;12.98;;;;;;;;;;5055548;28;20099;-61
2021/11/27 03:18:43;;;;;;;22.77;12.70;;;;;;;;;;5055271;28;20040;-62
2021/11/27 03:21:10;;;;;;;20.33;12.05;;;;;;;;;;5055166;28;20425;-61
2021/11/27 03:23:36;;;;;;;20.60;13.32;;;;;;;;;;5055105;28;20115;-62
2021/11/27 03:26:02;;;;;;;19.77;12.43;;;;;;;;;;5055325;28;20454;-61
2021/11/27 03:28:28;;;;;;;20.05;13.20;;;;;;;;;;5055116;28;20033;-61
2021/11/27 03:30:55;;;;;;;20.70;12.98;;;;;;;;;;5055101;28;20533;-61
2021/11/27 03:33:23;;;;;;;21.30;13.98;;;;;;;;;;5054621;28;20086;-62
2021/11/27 03:35:50;;;;;;;22.63;13.10;;;;;;;;;;5055140;28;20116;-61
2021/11/27 03:38:16;;;;;;;21.38;13.73;;;;;;;;;;5054889;28;20025;-62
2021/11/27 03:40:43;;;;;;;21.98;14.02;;;;;;;;;;5053470;28;20124;-61
2021/11/27 03:43:09;;;;;;;25.10;15.50;;;;;;;;;;5054736;28;20462;-62
2021/11/27 03:45:35;;;;;;;25.90;15.95;;;;;;;;;;5053582;28;20113;-62
2021/11/27 03:48:05;;;;;;;26.83;16.67;;;;;;;;;;5053379;28;20036;-61
2021/11/27 03:50:33;;;;;;;25.42;16.27;;;;;;;;;;5054558;28;20037;-62
2021/11/27 03:53:00;;;;;;;25.55;17.30;;;;;;;;;;5053235;28;20060;-62
2021/11/27 03:55:26;;;;;;;27.85;18.33;;;;;;;;;;5054518;28;20021;-62
2021/11/27 03:57:53;;;;;;;25.67;18.23;;;;;;;;;;5054502;28;20155;-61
2021/11/27 04:00:19;;;;;;;29.40;17.63;;;;;;;;;;5054429;28;20020;-61
2021/11/27 04:02:46;;;;;;;27.52;18.15;;;;;;;;;;5054591;28;20107;-64
2021/11/27 04:05:13;;;;;;;26.88;17.02;;;;;;;;;;5054310;28;20024;-62
2021/11/27 04:07:39;;;;;;;29.30;17.13;;;;;;;;;;5053188;28;20386;-62
2021/11/27 04:10:06;;;;;;;26.92;17.90;;;;;;;;;;5054509;28;20108;-62
2021/11/27 04:12:32;;;;;;;24.83;17.23;;;;;;;;;;5053669;28;20045;-65
2021/11/27 04:14:59;;;;;;;22.33;15.73;;;;;;;;;;5054083;28;20033;-63
2021/11/27 04:17:25;;;;;;;24.40;17.08;;;;;;;;;;5054151;28;20040;-65
2021/11/27 04:19:51;;;;;;;24.30;16.67;;;;;;;;;;5054079;28;20032;-62
2021/11/27 04:22:17;;;;;;;23.75;16.75;;;;;;;;;;5054271;28;20140;-64
2021/11/27 04:24:43;;;;;;;26.65;16.95;;;;;;;;;;5053952;28;20120;-66
2021/11/27 04:27:10;;;;;;;27.25;19.10;;;;;;;;;;5053887;28;20104;-62
2021/11/27 04:29:36;;;;;;;24.50;16.98;;;;;;;;;;5053961;28;20144;-64
2021/11/27 04:32:03;;;;;;;25.48;17.77;;;;;;;;;;5053423;28;20469;-63
2021/11/27 04:34:29;;;;;;;24.30;17.23;;;;;;;;;;5053783;28;20029;-62
2021/11/27 04:36:55;;;;;;;24.25;16.40;;;;;;;;;;5053411;28;20100;-62
2021/11/27 04:39:22;;;;;;;26.20;16.88;;;;;;;;;;5053738;28;20059;-61
2021/11/27 04:41:48;;;;;;;25.13;17.25;;;;;;;;;;5053628;28;20029;-62
2021/11/27 04:44:14;;;;;;;25.42;16.13;;;;;;;;;;5053564;28;20053;-62
2021/11/27 04:46:40;;;;;;;28.75;17.13;;;;;;;;;;5053518;28;20085;-62
2021/11/27 04:49:06;;;;;;;29.63;17.50;;;;;;;;;;5053559;28;20478;-61
2021/11/27 04:51:33;;;;;;;26.13;17.88;;;;;;;;;;5052074;28;20120;-61
2021/11/27 04:53:59;;;;;;;26.23;17.42;;;;;;;;;;5053172;28;20147;-61
2021/11/27 04:56:26;;;;;;;24.42;15.40;;;;;;;;;;5053260;28;20021;-61
2021/11/27 04:58:52;;;;;;;24.73;16.13;;;;;;;;;;5053270;28;20078;-61
2021/11/27 05:01:22;;;;;;;26.77;17.67;;;;;;;;;;5053337;28;20076;-62
2021/11/27 05:03:48;;;;;;;27.58;16.33;;;;;;;;;;5053316;28;20020;-62
2021/11/27 05:06:14;;;;;;;23.48;15.30;;;;;;;;;;5053247;28;20147;-63
2021/11/27 05:08:41;;;;;;;20.23;14.98;;;;;;;;;;5053256;28;20039;-62
2021/11/27 05:11:07;;;;;;;25.58;15.43;;;;;;;;;;5052539;28;20424;-62
2021/11/27 05:13:33;;;;;;;23.67;14.68;;;;;;;;;;5053466;28;20056;-62
2021/11/27 05:15:59;;;;;;;19.50;13.70;;;;;;;;;;5053085;28;20040;-63
2021/11/27 05:18:26;;;;;;;20.85;14.75;;;;;;;;;;5053096;28;20021;-63
2021/11/27 05:20:52;;;;;;;26.88;17.02;;;;;;;;;;5052815;28;20100;-62
2021/11/27 05:23:18;;;;;;;23.15;16.38;;;;;;;;;;5053016;28;20053;-63
2021/11/27 05:25:44;;;;;;;24.70;15.30;;;;;;;;;;5052691;28;20029;-63
2021/11/27 05:28:11;;;;;;;26.33;15.45;;;;;;;;;;5052955;28;20033;-63
2021/11/27 05:30:37;;;;;;;22.63;15.23;;;;;;;;;;5051587;28;20031;-62
2021/11/27 05:33:12;;;;;;;22.02;15.40;;;;;;;;;;5051633;28;20029;-63
2021/11/27 05:35:39;;;;;;;22.95;15.15;;;;;;;;;;5052981;28;20021;-63
2021/11/27 05:38:05;;;;;;;27.40;18.50;;;;;;;;;;5052877;28;20028;-62
2021/11/27 05:40:32;;;;;;;27.67;18.05;;;;;;;;;;5052861;28;20024;-62
2021/11/27 05:42:58;;;;;;;25.98;17.58;;;;;;;;;;5052813;28;20017;-63
2021/11/27 05:45:28;;;;;;;23.60;16.88;;;;;;;;;;5052475;28;20427;-64
2021/11/27 05:47:59;;;;;;;32.35;19.08;;;;;;;;;;5052866;28;20033;-63
2021/11/27 05:50:26;;;;;;;46.38;26.80;;;;;;;;;;5052737;28;20465;-63
2021/11/27 05:52:53;;;;;;;65.07;33.20;;;;;;;;;;5052417;28;20367;-62
2021/11/27 05:55:20;;;;;;;56.17;29.80;;;;;;;;;;5052732;28;20037;-63
2021/11/27 05:57:46;;;;;;;64.90;31.17;;;;;;;;;;5051322;28;20021;-62
2021/11/27 06:00:13;;;;;;;31.42;19.63;;;;;;;;;;5051376;28;20029;-63
2021/11/27 06:02:40;;;;;;;24.60;14.93;;;;;;;;;;5052539;28;20378;-62
2021/11/27 06:05:06;;;;;;;21.77;14.20;;;;;;;;;;5052591;28;20420;-62
2021/11/27 06:07:33;;;;;;;22.65;14.80;;;;;;;;;;5051359;28;20227;-62
2021/11/27 06:09:59;;;;;;;20.83;12.88;;;;;;;;;;5054924;28;20029;-62
2021/11/27 06:12:25;;;;;;;21.48;13.23;;;;;;;;;;5055017;28;20136;-63
2021/11/27 06:14:51;;;;;;;20.70;14.18;;;;;;;;;;5056509;28;20136;-62
2021/11/27 06:17:18;;;;;;;26.98;16.33;;;;;;;;;;5056408;28;20082;-63
2021/11/27 06:19:44;;;;;;;24.63;15.25;;;;;;;;;;5055037;28;20040;-65
2021/11/27 06:22:11;;;;;;;45.22;24.98;;;;;;;;;;5056336;28;20035;-62
2021/11/27 06:24:37;;;;;;;43.72;24.08;;;;;;;;;;5054785;28;20025;-63
2021/11/27 06:27:03;;;;;;;30.83;19.85;;;;;;;;;;5054892;28;20025;-62
2021/11/27 06:29:29;;;;;;;43.50;24.15;;;;;;;;;;5056203;28;20021;-65
2021/11/27 06:31:56;;;;;;;37.33;22.40;;;;;;;;;;5056010;28;20078;-61
2021/11/27 06:34:22;;;;;;;48.83;28.02;;;;;;;;;;5054724;28;20029;-62
2021/11/27 06:36:48;;;;;;;49.55;28.83;;;;;;;;;;5036824;28;20425;-62
2021/11/27 06:39:14;;;;;;;52.60;29.20;;;;;;;;;;5052811;28;20074;-62
2021/11/27 06:41:40;;;;;;;59.75;31.92;;;;;;;;;;5037910;28;20079;-61
2021/11/27 06:44:07;;;;;;;56.53;32.97;;;;;;;;;;5037764;28;20032;-62
2021/11/27 06:46:33;;;;;;;60.80;33.47;;;;;;;;;;5055994;28;20117;-62
2021/11/27 06:48:59;;;;;;;49.03;28.63;;;;;;;;;;5055598;28;20473;-62
2021/11/27 06:51:25;;;;;;;48.92;28.00;;;;;;;;;;5055823;28;20040;-62
2021/11/27 06:53:52;;;;;;;48.13;28.42;;;;;;;;;;5055498;28;20082;-63
2021/11/27 06:56:18;;;;;;;53.08;29.42;;;;;;;;;;5037465;28;20384;-63
2021/11/27 06:58:44;;;;;;;60.05;30.77;;;;;;;;;;5055766;28;20028;-63
2021/11/27 07:01:10;;;;;;;53.72;30.65;;;;;;;;;;5055465;28;20135;-63
2021/11/27 07:03:36;;;;;;;52.97;30.15;;;;;;;;;;5055114;28;20390;-62
2021/11/27 07:06:04;;;;;;;56.60;33.92;;;;;;;;;;5055259;28;20029;-64
2021/11/27 07:08:30;;;;;;;54.50;32.90;;;;;;;;;;5037424;28;20040;-62
2021/11/27 07:10:56;;;;;;;58.70;33.38;;;;;;;;;;5055480;28;20545;-63
2021/11/27 07:13:22;;;;;;;54.30;32.35;;;;;;;;;;5037197;28;20053;-63
2021/11/27 07:15:49;;;;;;;48.45;29.00;;;;;;;;;;5037264;28;20032;-63
2021/11/27 07:18:15;;;;;;;55.83;33.15;;;;;;;;;;5054815;28;20473;-63
2021/11/27 07:20:41;;;;;;;49.63;27.42;;;;;;;;;;5037035;28;20072;-62
2021/11/27 07:23:09;;;;;;;42.60;25.80;;;;;;;;;;5055123;28;20028;-63
2021/11/27 07:25:35;;;;;;;31.05;19.50;;;;;;;;;;5055017;28;20051;-62
2021/11/27 07:28:02;;;;;;;35.08;20.98;;;;;;;;;;5054863;28;20108;-63
2021/11/27 07:30:28;;;;;;;32.45;17.60;;;;;;;;;;5054949;28;20157;-63
2021/11/27 07:32:54;;;;;;;36.80;20.27;;;;;;;;;;5054722;28;20060;-63
2021/11/27 07:35:20;;;;;;;34.03;19.60;;;;;;;;;;5054900;28;20083;-63
2021/11/27 07:37:46;;;;;;;37.70;20.27;;;;;;;;;;5054740;28;20234;-63
2021/11/27 07:40:13;;;;;;;39.17;19.95;;;;;;;;;;5054401;28;20109;-63
2021/11/27 07:42:39;;;;;;;38.38;22.23;;;;;;;;;;5054459;28;20462;-63
2021/11/27 07:45:06;;;;;;;43.22;23.33;;;;;;;;;;5054552;28;20025;-63
2021/11/27 07:47:35;;;;;;;46.95;26.40;;;;;;;;;;5054498;28;20025;-65
2021/11/27 07:50:02;;;;;;;49.45;26.58;;;;;;;;;;5036143;28;20029;-63
2021/11/27 07:52:28;;;;;;;50.15;26.75;;;;;;;;;;5036354;28;20043;-64
2021/11/27 07:54:54;;;;;;;45.17;24.80;;;;;;;;;;5036488;28;20116;-67
2021/11/27 07:57:21;;;;;;;56.97;28.55;;;;;;;;;;5054357;28;20021;-63
2021/11/27 07:59:48;;;;;;;49.22;26.92;;;;;;;;;;5054315;28;20462;-62
2021/11/27 08:02:14;;;;;;;45.25;25.17;;;;;;;;;;5036308;28;20029;-64
2021/11/27 08:04:40;;;;;;;46.75;25.42;;;;;;;;;;5036365;28;20043;-62
2021/11/27 08:07:06;;;;;;;53.33;26.77;;;;;;;;;;5036314;28;20462;-64
2021/11/27 08:09:33;;;;;;;45.42;24.70;;;;;;;;;;5054104;28;20539;-65
2021/11/27 08:11:59;;;;;;;45.97;25.98;;;;;;;;;;5055669;28;20057;-65
2021/11/27 08:14:31;;;;;;;46.75;24.45;;;;;;;;;;5054041;28;20424;-65
2021/11/27 08:16:58;;;;;;;49.05;27.17;;;;;;;;;;5054091;28;20036;-66
2021/11/27 08:19:24;;;;;;;49.65;27.15;;;;;;;;;;5053931;28;20025;-65
2021/11/27 08:21:50;;;;;;;41.05;23.48;;;;;;;;;;5054109;28;20116;-64
2021/11/27 08:24:16;;;;;;;41.83;23.98;;;;;;;;;;5035747;28;20033;-64
2021/11/27 08:26:43;;;;;;;38.78;22.73;;;;;;;;;;5053700;28;20056;-63
2021/11/27 08:29:09;;;;;;;47.05;26.27;;;;;;;;;;5035781;28;20056;-65
2021/11/27 08:31:35;;;;;;;48.40;25.88;;;;;;;;;;5035205;28;20149;-64
2021/11/27 08:34:01;;;;;;;59.50;31.88;;;;;;;;;;5053563;28;20029;-65
2021/11/27 08:36:28;;;;;;;55.15;30.23;;;;;;;;;;5053550;28;20025;-63
2021/11/27 08:38:54;;;;;;;67.10;36.08;;;;;;;;;;5035593;28;20021;-66
2021/11/27 08:41:20;;;;;;;62.83;31.90;;;;;;;;;;5053654;28;20025;-65
2021/11/27 08:43:47;;;;;;;60.28;30.67;;;;;;;;;;5035657;28;20128;-63
2021/11/27 08:46:13;;;;;;;68.38;33.10;;;;;;;;;;5053541;28;20025;-64
2021/11/27 08:48:39;;;;;;;51.00;28.88;;;;;;;;;;5053472;28;20036;-63
2021/11/27 08:51:06;;;;;;;56.80;31.27;;;;;;;;;;5035393;28;20119;-64
2021/11/27 08:53:33;;;;;;;60.08;32.05;;;;;;;;;;5052987;28;20033;-65
2021/11/27 08:55:59;;;;;;;62.13;34.70;;;;;;;;;;5053279;28;20017;-64
2021/11/27 08:58:25;;;;;;;63.35;31.38;;;;;;;;;;5053610;28;20112;-64
2021/11/27 09:00:51;;;;;;;66.10;35.55;;;;;;;;;;5053646;28;20056;-64
2021/11/27 09:03:18;;;;;;;68.43;36.97;;;;;;;;;;5053282;28;20029;-64
2021/11/27 09:05:44;;;;;;;64.28;34.90;;;;;;;;;;5053208;28;20033;-65
2021/11/27 09:08:10;;;;;;;57.85;31.42;;;;;;;;;;5053173;28;20112;-65
2021/11/27 09:10:36;;;;;;;56.65;31.38;;;;;;;;;;5053145;28;20025;-65
2021/11/27 09:13:03;;;;;;;63.90;33.72;;;;;;;;;;5053082;28;20052;-63
2021/11/27 09:15:30;;;;;;;55.10;31.25;;;;;;;;;;5035096;28;20036;-62
2021/11/27 09:17:56;;;;;;;53.17;28.75;;;;;;;;;;5053322;28;20021;-66
2021/11/27 09:20:22;;;;;;;46.83;25.80;;;;;;;;;;5052941;28;20370;-65
2021/11/27 09:22:49;;;;;;;50.17;27.55;;;;;;;;;;5052910;28;20065;-64
2021/11/27 09:25:15;;;;;;;49.90;27.88;;;;;;;;;;5052852;28;20466;-65
2021/11/27 09:27:44;;;;;;;62.80;34.17;;;;;;;;;;5053128;28;20033;-64
2021/11/27 09:30:11;;;;;;;62.67;32.08;;;;;;;;;;5052900;28;20021;-64
2021/11/27 09:32:37;;;;;;;60.88;33.03;;;;;;;;;;5052835;28;20040;-64
2021/11/27 09:35:04;;;;;;;61.45;32.60;;;;;;;;;;5052836;28;20028;-64
2021/11/27 09:37:35;;;;;;;54.90;31.00;;;;;;;;;;5052764;28;20028;-64
2021/11/27 09:40:04;;;;;;;55.63;32.03;;;;;;;;;;5052836;28;20470;-63
2021/11/27 09:42:32;;;;;;;60.25;32.63;;;;;;;;;;5034824;28;20116;-65
2021/11/27 09:45:05;;;;;;;62.58;34.72;;;;;;;;;;5055120;28;20025;-63
2021/11/27 09:47:32;;;;;;;66.97;39.20;;;;;;;;;;5038792;28;20417;-64
2021/11/27 09:49:59;;;;;;;58.83;33.40;;;;;;;;;;5056691;28;20036;-66
2021/11/27 09:52:25;;;;;;;66.97;37.80;;;;;;;;;;5038686;28;20545;-64
2021/11/27 09:54:51;;;;;;;61.83;34.83;;;;;;;;;;5056612;28;20091;-64
2021/11/27 09:57:18;;;;;;;63.38;35.65;;;;;;;;;;5038658;28;20116;-64
2021/11/27 09:59:46;;;;;;;66.47;35.90;;;;;;;;;;5056570;28;20078;-65
2021/11/27 10:02:13;;;;;;;70.85;37.40;;;;;;;;;;5056538;28;20153;-66
2021/11/27 10:04:40;;;;;;;83.38;43.58;;;;;;;;;;5056480;28;20029;-64
2021/11/27 10:07:10;;;;;;;81.10;44.00;;;;;;;;;;5056340;28;20021;-64
2021/11/27 10:09:37;;;;;;;76.32;40.90;;;;;;;;;;5056155;28;20531;-64
2021/11/27 10:12:07;;;;;;;64.00;34.63;;;;;;;;;;5056175;28;20132;-64
2021/11/27 10:14:35;;;;;;;68.97;38.57;;;;;;;;;;5056336;28;20025;-66
2021/11/27 10:17:04;;;;;;;74.47;40.38;;;;;;;;;;5056177;28;20238;-64
2021/11/27 10:19:44;;;;;;;72.18;41.55;;;;;;;;;;5055912;28;20416;-63
2021/11/27 10:22:12;;;;;;;67.35;35.90;;;;;;;;;;5038244;28;20116;-67
2021/11/27 10:24:39;;;;;;;62.42;35.20;;;;;;;;;;5037930;28;20032;-64
2021/11/27 10:27:16;;;;;;;65.90;38.25;;;;;;;;;;5038286;28;20118;-65
2021/11/27 10:29:42;;;;;;;59.30;33.92;;;;;;;;;;5056186;28;20481;-66
2021/11/27 10:32:21;;;;;;;67.38;36.45;;;;;;;;;;5056166;28;20043;-65
2021/11/27 10:34:49;;;;;;;68.22;38.13;;;;;;;;;;5056044;28;20060;-66
2021/11/27 10:37:28;;;;;;;62.83;34.63;;;;;;;;;;5056004;28;20090;-64
2021/11/27 10:40:03;;;;;;;64.35;34.97;;;;;;;;;;5055981;28;20029;-64
2021/11/27 10:42:29;;;;;;;57.95;33.22;;;;;;;;;;5055930;28;20374;-65
2021/11/27 10:44:56;;;;;;;60.28;32.95;;;;;;;;;;5037853;28;20045;-67
2021/11/27 10:47:23;;;;;;;74.28;36.72;;;;;;;;;;5055787;28;20025;-67
2021/11/27 10:49:50;;;;;;;79.30;43.65;;;;;;;;;;5055813;28;20024;-65
2021/11/27 10:52:20;;;;;;;91.72;48.92;;;;;;;;;;5055610;28;20025;-64
2021/11/27 10:54:46;;;;;;;75.00;42.40;;;;;;;;;;5055120;28;20485;-63
2021/11/27 10:57:32;;;;;;;77.63;42.60;;;;;;;;;;5055603;28;20053;-64
2021/11/27 11:00:00;;;;;;;77.25;42.80;;;;;;;;;;5055585;28;20029;-65
2021/11/27 11:02:30;;;;;;;85.15;48.50;;;;;;;;;;5055597;28;20024;-66
2021/11/27 11:05:01;;;;;;;80.65;41.45;;;;;;;;;;5055458;28;20021;-65
2021/11/27 11:07:28;;;;;;;68.00;36.83;;;;;;;;;;5055475;28;20049;-65
2021/11/27 11:10:01;;;;;;;65.13;37.55;;;;;;;;;;5055379;28;20115;-65
2021/11/27 11:12:50;;;;;;;64.00;37.58;;;;;;;;;;5054835;28;20471;-63
2021/11/27 11:15:18;;;;;;;65.18;36.90;;;;;;;;;;5055380;28;20024;-65
2021/11/27 11:17:45;;;;;;;80.20;43.50;;;;;;;;;;5055276;28;20035;-64
2021/11/27 11:20:21;;;;;;;72.03;40.58;;;;;;;;;;5055259;28;20028;-64
2021/11/27 11:22:59;;;;;;;66.95;38.55;;;;;;;;;;5055224;28;20025;-64
2021/11/27 11:25:25;;;;;;;63.80;37.83;;;;;;;;;;5054745;28;20363;-63
2021/11/27 11:27:52;;;;;;;53.03;32.78;;;;;;;;;;5037089;28;20033;-64
2021/11/27 11:30:21;;;;;;;66.10;38.10;;;;;;;;;;5054982;28;20021;-65
2021/11/27 11:32:47;;;;;;;55.83;33.53;;;;;;;;;;5054991;28;20033;-65
2021/11/27 11:35:14;;;;;;;81.25;44.70;;;;;;;;;;5050356;28;20044;-67
2021/11/27 11:37:40;;;;;;;58.17;33.42;;;;;;;;;;5033894;28;20059;-64
2021/11/27 11:40:07;;;;;;;54.92;34.58;;;;;;;;;;5034564;28;20101;-65
2021/11/27 11:42:33;;;;;;;59.05;35.28;;;;;;;;;;5035209;28;20049;-65
2021/11/27 11:45:00;;;;;;;67.88;39.47;;;;;;;;;;5034838;28;20361;-65
2021/11/27 11:47:26;;;;;;;81.25;45.75;;;;;;;;;;5034842;28;20033;-63
2021/11/27 11:49:53;;;;;;;78.05;44.28;;;;;;;;;;5034423;28;20097;-69
2021/11/27 11:52:20;;;;;;;70.88;40.85;;;;;;;;;;5033428;28;20179;-64
2021/11/27 11:54:48;;;;;;;67.63;40.70;;;12.70;99.90;;;;;;5034620;28;20025;-64
2021/11/27 11:57:14;;;;;;;61.22;38.33;;;13.10;99.90;;;;;;5034504;28;20033;-65
2021/11/27 11:59:41;;;;;;;66.25;40.15;;;13.70;99.90;;;;;;5016114;28;20034;-64
2021/11/27 12:02:28;;;;;;;48.55;29.23;;;14.30;99.90;;;;;;5033092;28;20128;-64
2021/11/27 12:04:58;;;;;;;44.42;26.90;;;15.40;99.90;;;;;;5034245;28;20028;-67
2021/11/27 12:07:42;;;;;;;42.90;27.38;;;15.90;99.80;;;;;;5033306;28;20025;-64
2021/11/27 12:10:22;;;;;;;39.00;24.90;;;15.40;99.70;;;;;;5033515;28;20030;-66
2021/11/27 12:13:06;;;;;;;36.50;24.08;;;15.30;99.90;;;;;;5033553;28;20064;-64
2021/11/27 12:16:00;;;;;;;39.97;23.98;;;14.60;99.90;;;;;;5054184;28;20065;-64
2021/11/27 12:18:26;;;;;;;40.85;25.77;;;13.60;99.90;;;;;;5042921;28;20044;-65
2021/11/27 12:20:58;;;;;;;51.47;31.52;;;12.80;99.90;;;;;;5054190;28;20100;-66
2021/11/27 12:23:36;;;;;;;47.67;29.10;;;12.40;99.90;;;;;;5053224;28;20028;-66
2021/11/27 12:28:34;;;;;;;59.65;31.77;;;;;;;;;;5053650;28;20037;-66
2021/11/27 12:31:18;;;;;;;52.67;29.83;;;11.70;99.90;;;;;;5053948;28;20465;-64
2021/11/27 12:33:47;;;;;;;42.80;26.63;;;;;;;;;;5053694;28;20029;-65
2021/11/27 12:36:38;;;;;;;48.45;26.95;;;;;;;;;;5053495;28;20024;-66
2021/11/27 12:39:22;;;;;;;53.28;30.05;;;;;;;;;;5043963;28;20037;-67
2021/11/27 12:41:48;;;;;;;58.20;32.55;;;;;;;;;;5035719;28;20024;-65
2021/11/27 12:44:44;;;;;;;61.42;37.35;;;;;;;;;;5053635;28;20028;-63
2021/11/27 12:47:13;;;;;;;72.65;44.30;;;;;;;;;;4972284;28;20039;-65
2021/11/27 12:49:39;;;;;;;67.45;38.65;;;;;;;;;;4956089;28;20062;-65
2021/11/27 12:52:15;;;;;;;63.30;38.55;;;;;;;;;;4972215;28;20053;-65
2021/11/27 12:55:03;;;;;;;69.03;43.70;;;;;;;;;;4972287;28;20038;-64
2021/11/27 12:57:42;;;;;;;69.97;45.85;;;;;;;;;;4970218;28;20069;-63
2021/11/27 13:00:19;;;;;;;79.97;49.53;;;;;;;;;;4972274;28;20058;-67
2021/11/27 13:02:54;;;;;;;84.13;51.17;;;;;;;;;;4972008;28;20027;-64
2021/11/27 13:05:21;;;;;;;79.90;45.70;;;;;;;;;;4972281;28;20399;-66
2021/11/27 13:07:47;;;;;;;76.25;45.42;;;;;;;;;;4971956;28;20095;-63
2021/11/27 13:10:14;;;;;;;75.78;40.72;;;;;;;;;;4972074;28;20121;-64
2021/11/27 13:13:01;;;;;;;75.00;41.22;;;;;;;;;;4971718;28;20110;-65
2021/11/27 13:15:27;;;;;;;81.07;43.60;;;;;;;;;;4955875;28;20019;-64
2021/11/27 13:18:07;;;;;;;95.15;53.58;;;;;;;;;;4955549;28;20566;-64
2021/11/27 13:20:43;;;;;;;83.57;43.47;;;;;;;;;;4971970;28;20027;-64
2021/11/27 13:23:09;;;;;;;77.72;44.55;;;;;;;;;;4998444;28;20141;-65
2021/11/27 13:25:42;;;;;;;83.20;47.50;;;;;;;;;;5052989;28;20036;-67
2021/11/27 13:28:29;;;;;;;88.53;49.83;;;;;;;;;;5035074;28;20025;-65
2021/11/27 13:30:56;;;;;;;90.28;49.75;;;;;;;;;;5052901;28;20033;-67
2021/11/27 13:33:23;;;;;;;88.22;47.35;;;;;;;;;;5052929;28;20154;-63
2021/11/27 13:35:50;;;;;;;90.85;47.28;;;;;;;;;;5052876;28;20409;-65
2021/11/27 13:38:27;;;;;;;82.22;47.17;;;;;;;;;;5052866;28;20108;-65
2021/11/27 13:40:53;;;;;;;86.00;48.47;;;;;;;;;;5052860;28;20376;-63
2021/11/27 13:43:19;;;;;;;90.53;47.00;;;;;;;;;;5052906;28;20021;-63
2021/11/27 13:45:45;;;;;;;80.22;45.45;;;;;;;;;;5034926;28;20112;-64
2021/11/27 13:48:12;;;;;;;85.75;46.15;;;;;;;;;;5052844;28;20025;-65
2021/11/27 13:50:46;;;;;;;101.78;52.03;;;;;;;;;;5052773;28;20021;-65
2021/11/27 13:53:13;;;;;;;103.78;53.90;;;;;;;;;;5052786;28;20029;-65
2021/11/27 13:55:45;;;;;;;99.47;55.83;;;;;;;;;;5052711;28;20096;-64
2021/11/27 13:58:14;;;;;;;101.43;53.30;;;;;;;;;;5052713;28;20021;-67
2021/11/27 14:00:41;;;;;;;106.25;57.03;;;;;;;;;;5052691;28;20017;-66
2021/11/27 14:03:08;;;;;;;97.45;51.97;;;;;;;;;;5052622;28;20032;-65
2021/11/27 14:05:38;;;;;;;101.45;53.60;;;;;;;;;;5052587;28;20028;-64
2021/11/27 14:08:09;;;;;;;130.40;62.53;;;;;;;;;;5052561;28;20037;-65
2021/11/27 14:10:35;;;;;;;144.23;68.40;;;;;;;;;;5052269;28;20488;-64
2021/11/27 14:13:03;;;;;;;136.25;68.22;;;;;;;;;;5034465;28;20056;-64
2021/11/27 14:15:43;;;;;;;136.43;69.05;;;;;;;;;;5052351;28;20052;-65
2021/11/27 14:18:12;;;;;;;137.52;70.40;;;;;;;;;;5052723;28;20025;-64
2021/11/27 14:20:39;;;;;;;131.63;64.45;;;;;;;;;;5052317;28;20017;-66